Time;durP1;ratioP1;P1;durP2;ratioP2;P2;SDS_P1;SDS_P2;PMS_P1;PMS_P2;Temp;Humidity;BMP_temperature;BMP_pressure;BME280_temperature;BME280_humidity;BME280_pressure;Samples;Min_cycle;Max_cycle;Signal;HPM_P1;HPM_P2
2020/12/10 00:01:08;;;;;;;15.77;9.70;;;19.80;50.10;;;;;;5068435;28;20489;-68
2020/12/10 00:03:35;;;;;;;16.33;9.80;;;19.80;50.10;;;;;;5069971;28;20473;-70
2020/12/10 00:06:01;;;;;;;16.70;10.30;;;19.80;50.10;;;;;;5069560;28;20477;-68
2020/12/10 00:08:27;;;;;;;13.37;9.50;;;19.70;50.10;;;;;;5067373;28;20496;-69
2020/12/10 00:10:53;;;;;;;17.57;9.73;;;19.70;50.10;;;;;;5067991;28;21187;-68
2020/12/10 00:13:19;;;;;;;14.77;9.47;;;19.70;50.20;;;;;;5069746;28;20474;-69
2020/12/10 00:15:45;;;;;;;16.57;10.17;;;19.70;50.10;;;;;;5068216;28;20477;-68
2020/12/10 00:18:11;;;;;;;12.40;9.27;;;19.70;50.10;;;;;;5067729;28;20485;-66
2020/12/10 00:20:38;;;;;;;16.20;10.00;;;19.60;50.00;;;;;;5068462;28;21548;-68
2020/12/10 00:23:05;;;;;;;15.40;10.70;;;19.60;50.10;;;;;;5067708;28;20836;-68
2020/12/10 00:25:31;;;;;;;13.97;10.50;;;19.60;50.10;;;;;;5065589;28;20472;-68
2020/12/10 00:27:57;;;;;;;15.53;9.67;;;19.60;50.10;;;;;;5071113;27;20490;-68
2020/12/10 00:30:23;;;;;;;14.27;9.40;;;19.60;50.00;;;;;;5066741;28;20493;-68
2020/12/10 00:32:49;;;;;;;15.03;9.10;;;19.60;50.00;;;;;;5067609;28;20474;-68
2020/12/10 00:35:15;;;;;;;15.97;10.00;;;19.60;50.00;;;;;;5068190;28;20486;-68
2020/12/10 00:37:42;;;;;;;16.50;10.17;;;19.60;50.00;;;;;;5069618;28;20489;-67
2020/12/10 00:40:08;;;;;;;19.00;9.73;;;19.60;49.80;;;;;;5066657;28;20485;-71
2020/12/10 00:42:35;;;;;;;16.90;10.17;;;19.60;50.00;;;;;;5071253;28;20477;-69
2020/12/10 00:45:01;;;;;;;16.37;10.07;;;19.50;50.00;;;;;;5068251;28;20480;-68
2020/12/10 00:47:27;;;;;;;21.03;10.53;;;19.60;50.00;;;;;;5071057;28;20489;-70
2020/12/10 00:49:53;;;;;;;15.20;9.27;;;19.60;50.00;;;;;;5068797;28;20484;-69
2020/12/10 00:52:23;;;;;;;15.57;10.10;;;19.60;49.90;;;;;;5069142;28;20495;-69
2020/12/10 00:54:50;;;;;;;13.70;9.00;;;19.60;49.80;;;;;;5067582;28;20562;-67
2020/12/10 00:57:16;;;;;;;14.60;9.47;;;19.70;49.90;;;;;;5062738;28;20519;-69
2020/12/10 00:59:42;;;;;;;17.80;10.03;;;19.70;49.90;;;;;;5078566;28;20500;-65
2020/12/10 01:02:08;;;;;;;19.07;9.77;;;19.70;49.80;;;;;;5065195;28;20484;-69
2020/12/10 01:04:35;;;;;;;14.93;11.67;;;19.60;49.70;;;;;;5069732;28;20481;-69
2020/12/10 01:07:01;;;;;;;17.10;10.40;;;19.60;49.70;;;;;;5061244;28;20501;-69
2020/12/10 01:09:27;;;;;;;19.47;10.37;;;19.60;49.70;;;;;;5069799;28;20492;-68
2020/12/10 01:11:54;;;;;;;15.70;10.13;;;19.60;49.70;;;;;;5070474;28;20481;-68
2020/12/10 01:14:21;;;;;;;20.63;10.27;;;19.60;49.70;;;;;;5068211;28;20492;-68
2020/12/10 01:16:47;;;;;;;18.77;11.30;;;19.60;49.60;;;;;;5061291;28;20473;-69
2020/12/10 01:19:14;;;;;;;15.57;11.03;;;19.60;49.70;;;;;;5067080;28;20567;-69
2020/12/10 01:21:40;;;;;;;17.93;11.17;;;19.60;49.60;;;;;;5069099;28;20483;-67
2020/12/10 01:24:06;;;;;;;20.10;11.17;;;19.60;49.60;;;;;;5057329;28;20492;-68
2020/12/10 01:26:33;;;;;;;19.63;11.43;;;19.60;49.60;;;;;;5066417;28;20481;-67
2020/12/10 01:29:00;;;;;;;21.07;11.50;;;19.60;49.60;;;;;;5050207;28;20589;-68
2020/12/10 01:31:27;;;;;;;21.53;11.97;;;19.60;49.70;;;;;;5055274;28;20490;-69
2020/12/10 01:33:53;;;;;;;16.70;11.07;;;19.60;49.50;;;;;;5057945;28;21004;-68
2020/12/10 01:36:19;;;;;;;20.57;11.90;;;19.60;49.60;;;;;;5059285;28;20537;-68
2020/12/10 01:38:46;;;;;;;21.70;11.60;;;19.60;49.60;;;;;;5053984;28;20482;-70
2020/12/10 01:41:12;;;;;;;16.30;11.30;;;19.60;49.60;;;;;;5056285;28;20475;-68
2020/12/10 01:43:38;;;;;;;21.77;11.17;;;19.60;49.60;;;;;;5049190;28;20481;-68
2020/12/10 01:46:05;;;;;;;18.60;11.43;;;19.60;49.50;;;;;;5051815;28;20485;-68
2020/12/10 01:48:32;;;;;;;18.97;10.80;;;19.60;49.40;;;;;;5053572;28;20531;-68
2020/12/10 01:50:58;;;;;;;19.30;11.57;;;19.60;49.50;;;;;;5051184;28;20510;-68
2020/12/10 01:53:24;;;;;;;21.63;11.57;;;19.60;49.40;;;;;;5049530;28;20513;-68
2020/12/10 01:55:50;;;;;;;16.73;10.93;;;19.60;49.40;;;;;;5050083;28;21364;-69
2020/12/10 01:58:16;;;;;;;18.80;10.97;;;19.50;49.40;;;;;;5053100;28;21585;-68
2020/12/10 02:00:43;;;;;;;21.57;11.40;;;19.60;49.40;;;;;;5063048;28;20531;-67
2020/12/10 02:03:10;;;;;;;26.17;12.70;;;19.60;49.40;;;;;;5054845;28;20508;-67
2020/12/10 02:05:40;;;;;;;20.70;11.67;;;19.60;49.30;;;;;;5053540;28;20473;-68
2020/12/10 02:08:07;;;;;;;18.97;12.60;;;19.70;49.30;;;;;;5055092;28;20486;-69
2020/12/10 02:10:33;;;;;;;31.37;14.27;;;19.70;49.20;;;;;;5067529;28;20491;-69
2020/12/10 02:12:59;;;;;;;22.33;12.73;;;19.70;49.20;;;;;;5065925;28;20481;-69
2020/12/10 02:15:25;;;;;;;21.77;11.60;;;19.70;49.10;;;;;;5068987;28;20474;-69
2020/12/10 02:17:54;;;;;;;21.67;11.83;;;19.70;49.00;;;;;;5072458;28;20485;-69
2020/12/10 02:20:21;;;;;;;23.80;12.00;;;19.70;49.00;;;;;;5073544;28;20962;-68
2020/12/10 02:22:51;;;;;;;26.80;13.63;;;19.70;49.00;;;;;;5075103;28;20849;-67
2020/12/10 02:25:17;;;;;;;22.87;13.00;;;19.70;49.00;;;;;;5057497;28;22391;-69
2020/12/10 02:27:44;;;;;;;24.43;13.43;;;19.70;49.00;;;;;;5053089;28;20472;-70
2020/12/10 02:30:10;;;;;;;25.17;13.83;;;19.70;49.80;;;;;;5061262;28;20671;-68
2020/12/10 02:32:36;;;;;;;23.10;12.97;;;19.70;49.10;;;;;;5073388;28;20486;-68
2020/12/10 02:35:02;;;;;;;26.10;13.03;;;19.70;49.10;;;;;;5073938;28;20473;-67
2020/12/10 02:37:28;;;;;;;23.70;13.77;;;19.70;49.20;;;;;;5071487;28;20489;-69
2020/12/10 02:40:13;;;;;;;23.17;13.93;;;19.70;49.10;;;;;;5067680;28;20480;-68
2020/12/10 02:42:40;;;;;;;25.50;13.30;;;19.70;49.00;;;;;;5043863;28;20983;-67
2020/12/10 02:45:06;;;;;;;23.60;12.63;;;19.70;48.90;;;;;;5049056;28;20990;-68
2020/12/10 02:47:32;;;;;;;25.80;13.23;;;19.70;48.90;;;;;;5051239;28;20540;-68
2020/12/10 02:49:58;;;;;;;22.90;12.03;;;19.70;48.80;;;;;;5040755;28;20485;-68
2020/12/10 02:52:24;;;;;;;26.10;15.23;;;19.80;48.90;;;;;;5050447;28;20489;-68
2020/12/10 02:54:50;;;;;;;28.40;13.37;;;19.70;48.80;;;;;;5050535;28;20471;-68
2020/12/10 02:57:17;;;;;;;34.97;14.60;;;19.70;48.80;;;;;;5057545;28;20486;-67
2020/12/10 02:59:43;;;;;;;25.50;14.33;;;19.70;48.80;;;;;;5041048;28;20496;-66
2020/12/10 03:02:10;;;;;;;26.17;14.90;;;19.70;48.90;;;;;;5040755;28;20477;-71
2020/12/10 03:04:36;;;;;;;25.10;14.57;;;19.70;48.90;;;;;;5050756;28;20477;-67
2020/12/10 03:07:02;;;;;;;22.40;12.60;;;19.60;48.90;;;;;;5048392;28;20473;-69
2020/12/10 03:09:28;;;;;;;23.60;13.47;;;19.60;48.90;;;;;;5049782;28;20481;-69
2020/12/10 03:11:54;;;;;;;27.10;14.63;;;19.60;48.90;;;;;;5050665;28;20833;-67
2020/12/10 03:14:21;;;;;;;30.77;14.90;;;19.60;48.90;;;;;;5050560;28;21009;-67
2020/12/10 03:16:47;;;;;;;27.30;14.53;;;19.60;48.90;;;;;;5046535;28;20489;-67
2020/12/10 03:19:13;;;;;;;21.77;12.70;;;19.60;49.60;;;;;;5050642;28;20474;-66
2020/12/10 03:21:40;;;;;;;27.30;14.20;;;19.60;48.90;;;;;;5037712;28;20494;-68
2020/12/10 03:24:06;;;;;;;26.83;14.03;;;19.60;48.90;;;;;;5044178;28;20508;-67
2020/12/10 03:26:32;;;;;;;25.17;13.80;;;19.60;48.90;;;;;;5043346;28;20484;-68
2020/12/10 03:28:58;;;;;;;24.90;14.63;;;19.60;48.90;;;;;;5040021;28;21455;-65
2020/12/10 03:31:25;;;;;;;26.87;15.27;;;19.60;48.90;;;;;;5050180;28;20489;-68
2020/12/10 03:33:51;;;;;;;26.90;14.87;;;19.60;48.90;;;;;;5048784;28;20481;-68
2020/12/10 03:36:17;;;;;;;33.37;15.10;;;19.60;48.90;;;;;;5051295;28;21027;-67
2020/12/10 03:38:43;;;;;;;29.70;16.07;;;19.60;48.90;;;;;;5050502;28;20987;-68
2020/12/10 03:41:10;;;;;;;27.20;16.07;;;19.60;48.90;;;;;;5051087;28;20486;-68
2020/12/10 03:43:36;;;;;;;24.53;14.83;;;19.60;48.80;;;;;;5052260;28;21117;-67
2020/12/10 03:46:03;;;;;;;23.33;14.13;;;19.60;48.90;;;;;;5036390;28;20519;-68
2020/12/10 03:48:30;;;;;;;31.70;16.40;;;19.60;48.80;;;;;;5050545;28;20489;-68
2020/12/10 03:50:56;;;;;;;27.40;15.70;;;19.60;48.80;;;;;;5048632;28;20482;-70
2020/12/10 03:53:22;;;;;;;28.73;15.60;;;19.60;48.80;;;;;;5047935;28;20478;-68
2020/12/10 03:55:48;;;;;;;29.10;15.50;;;19.60;48.80;;;;;;5066200;28;20482;-68
2020/12/10 03:58:14;;;;;;;27.33;14.73;;;19.60;48.80;;;;;;5053770;28;20485;-67
2020/12/10 04:00:40;;;;;;;29.13;16.83;;;19.60;48.80;;;;;;5052875;28;20488;-69
2020/12/10 04:03:07;;;;;;;24.90;15.53;;;19.60;48.80;;;;;;5049980;28;20480;-69
2020/12/10 04:05:33;;;;;;;24.77;15.07;;;19.60;49.60;;;;;;5050594;28;20465;-68
2020/12/10 04:08:00;;;;;;;29.77;17.00;;;19.60;48.80;;;;;;5048416;28;20496;-68
2020/12/10 04:10:26;;;;;;;28.83;15.87;;;19.60;48.70;;;;;;5052532;28;20494;-69
2020/12/10 04:12:52;;;;;;;28.37;16.40;;;19.60;48.60;;;;;;5051055;28;20478;-67
2020/12/10 04:15:18;;;;;;;31.87;17.60;;;19.70;48.50;;;;;;5047361;28;20482;-65
2020/12/10 04:17:44;;;;;;;30.50;17.63;;;19.70;48.30;;;;;;5040735;28;20914;-70
2020/12/10 04:20:10;;;;;;;25.37;15.20;;;19.80;48.40;;;;;;5050501;28;20482;-69
2020/12/10 04:22:37;;;;;;;26.57;16.37;;;19.80;48.10;;;;;;5049421;28;20485;-68
2020/12/10 04:25:04;;;;;;;28.47;17.27;;;19.90;48.00;;;;;;5050458;28;20485;-68
2020/12/10 04:27:30;;;;;;;28.03;15.50;;;19.90;47.90;;;;;;5047969;28;20498;-67
2020/12/10 04:29:56;;;;;;;34.50;18.00;;;19.90;47.90;;;;;;5038793;28;20486;-68
2020/12/10 04:32:22;;;;;;;29.70;16.53;;;20.00;48.10;;;;;;5049331;28;20494;-68
2020/12/10 04:34:48;;;;;;;25.70;15.60;;;20.00;47.70;;;;;;5038965;28;20494;-67
2020/12/10 04:37:14;;;;;;;34.33;17.80;;;20.00;47.60;;;;;;5048240;28;21981;-67
2020/12/10 04:39:41;;;;;;;26.97;15.90;;;19.90;47.70;;;;;;5045529;28;21249;-68
2020/12/10 04:42:09;;;;;;;28.07;15.63;;;19.90;47.70;;;;;;5051256;28;20485;-69
2020/12/10 04:44:35;;;;;;;27.83;16.53;;;19.90;47.80;;;;;;5048487;28;20505;-67
2020/12/10 04:47:01;;;;;;;32.23;16.63;;;19.90;47.90;;;;;;5038235;28;21196;-67
2020/12/10 04:49:28;;;;;;;28.43;15.43;;;19.80;47.90;;;;;;5039841;28;20504;-67
2020/12/10 04:51:54;;;;;;;29.10;16.47;;;19.80;48.00;;;;;;5049899;28;20490;-68
2020/12/10 04:54:20;;;;;;;29.90;16.77;;;19.90;48.00;;;;;;5051507;28;20489;-69
2020/12/10 04:56:47;;;;;;;32.93;18.90;;;19.90;48.00;;;;;;5041342;28;20486;-67
2020/12/10 04:59:13;;;;;;;28.60;17.03;;;19.80;48.00;;;;;;5038285;28;20501;-67
2020/12/10 05:01:39;;;;;;;34.47;17.77;;;19.80;48.10;;;;;;5017713;28;20482;-68
2020/12/10 05:04:05;;;;;;;29.80;16.50;;;19.80;48.00;;;;;;5048321;28;20860;-69
2020/12/10 05:06:32;;;;;;;32.00;17.37;;;19.70;48.00;;;;;;5048490;28;20611;-68
2020/12/10 05:09:06;;;;;;;31.40;16.50;;;19.70;48.20;;;;;;5049256;28;20504;-69
2020/12/10 05:11:34;;;;;;;27.47;17.00;;;19.70;48.20;;;;;;5050799;28;20486;-67
2020/12/10 05:14:01;;;;;;;27.87;16.20;;;19.60;48.30;;;;;;5049462;28;20493;-68
2020/12/10 05:16:27;;;;;;;28.30;15.20;;;19.60;48.20;;;;;;5048400;28;20489;-68
2020/12/10 05:18:53;;;;;;;28.23;16.40;;;19.60;48.20;;;;;;5054091;28;20485;-68
2020/12/10 05:21:19;;;;;;;26.97;15.67;;;19.70;48.20;;;;;;5054518;28;20482;-68
2020/12/10 05:23:46;;;;;;;30.10;17.47;;;19.70;48.20;;;;;;5052472;28;20487;-70
2020/12/10 05:26:12;;;;;;;26.43;15.30;;;19.70;48.20;;;;;;5042994;28;20486;-67
2020/12/10 05:28:42;;;;;;;26.70;15.87;;;19.70;48.10;;;;;;5043484;28;20484;-68
2020/12/10 05:31:10;;;;;;;31.20;15.90;;;19.70;48.00;;;;;;5038919;28;20537;-70
2020/12/10 05:33:36;;;;;;;25.40;14.70;;;19.60;48.00;;;;;;5041003;28;20492;-67
2020/12/10 05:36:09;;;;;;;28.13;15.70;;;19.70;47.70;;;;;;5048583;28;20493;-67
2020/12/10 05:38:51;;;;;;;25.83;15.67;;;19.70;47.70;;;;;;5055170;28;20477;-68
2020/12/10 05:41:18;;;;;;;28.53;15.20;;;19.70;47.50;;;;;;5066575;28;20505;-67
2020/12/10 05:43:44;;;;;;;26.73;15.50;;;19.70;47.50;;;;;;5072187;28;20472;-69
2020/12/10 05:46:18;;;;;;;28.67;17.13;;;19.70;47.60;;;;;;5065686;28;20484;-68
2020/12/10 05:48:45;;;;;;;25.30;13.47;;;19.60;47.30;;;;;;5031219;28;20969;-68
2020/12/10 05:51:15;;;;;;;28.13;15.83;;;19.70;47.50;;;;;;5027644;28;20486;-68
2020/12/10 05:53:41;;;;;;;23.20;13.83;;;19.60;47.40;;;;;;5021585;28;20473;-67
2020/12/10 05:56:09;;;;;;;25.17;13.30;;;19.60;47.40;;;;;;5047356;28;20492;-68
2020/12/10 05:58:36;;;;;;;24.67;13.67;;;19.60;47.20;;;;;;5049027;28;21021;-68
2020/12/10 06:01:02;;;;;;;22.10;13.70;;;19.60;47.20;;;;;;5047665;28;20485;-68
2020/12/10 06:03:29;;;;;;;20.17;14.10;;;19.70;47.30;;;;;;5047560;28;20475;-69
2020/12/10 06:05:55;;;;;;;23.77;13.90;;;19.70;47.30;;;;;;5048644;28;20483;-69
2020/12/10 06:08:21;;;;;;;19.77;13.37;;;19.70;47.20;;;;;;5048767;28;20489;-67
2020/12/10 06:10:47;;;;;;;23.50;12.23;;;19.80;47.20;;;;;;5048252;28;20493;-67
2020/12/10 06:13:13;;;;;;;21.37;13.47;;;19.70;46.80;;;;;;5048051;28;21059;-69
2020/12/10 06:15:39;;;;;;;22.33;13.87;;;19.70;46.60;;;;;;5048470;28;20873;-67
2020/12/10 06:18:07;;;;;;;21.60;13.43;;;19.70;47.20;;;;;;5048186;28;20501;-68
2020/12/10 06:20:35;;;;;;;19.87;13.93;;;19.70;46.40;;;;;;5051198;28;20497;-67
2020/12/10 06:23:31;;;;;;;21.20;13.73;;;19.70;46.40;;;;;;5051266;28;20493;-67
2020/12/10 06:25:57;;;;;;;17.83;13.33;;;19.60;46.60;;;;;;5050465;28;20487;-68
2020/12/10 06:28:24;;;;;;;21.23;13.80;;;19.60;46.40;;;;;;5054850;28;20488;-67
2020/12/10 06:31:02;;;;;;;20.63;12.87;;;19.60;46.50;;;;;;5048736;28;20844;-68
2020/12/10 06:33:34;;;;;;;22.90;14.30;;;19.60;46.70;;;;;;5052507;28;20509;-69
2020/12/10 06:36:22;;;;;;;20.13;12.40;;;19.60;46.70;;;;;;5047295;28;20486;-69
2020/12/10 06:38:48;;;;;;;22.10;13.43;;;19.60;46.90;;;;;;5071649;28;20526;-67
2020/12/10 06:41:14;;;;;;;21.97;13.57;;;19.60;47.00;;;;;;5072010;28;20497;-66
2020/12/10 06:43:40;;;;;;;20.33;13.67;;;19.60;47.00;;;;;;5061687;27;20475;-68
2020/12/10 06:46:07;;;;;;;17.70;11.47;;;19.70;47.00;;;;;;5078001;27;21594;-68
2020/12/10 06:48:40;;;;;;;23.67;14.80;;;19.70;47.00;;;;;;5070202;28;20993;-68
2020/12/10 06:51:13;;;;;;;23.00;13.47;;;19.70;47.00;;;;;;5069755;28;20487;-67
2020/12/10 06:53:40;;;;;;;18.10;11.77;;;19.70;47.00;;;;;;5072867;28;20861;-69
2020/12/10 06:56:09;;;;;;;23.10;13.07;;;19.60;47.00;;;;;;5070987;28;20473;-68
2020/12/10 06:58:55;;;;;;;22.77;13.07;;;19.70;47.20;;;;;;5073975;28;21130;-69
2020/12/10 07:01:23;;;;;;;21.73;13.63;;;19.60;47.20;;;;;;5071007;28;20477;-68
2020/12/10 07:03:51;;;;;;;23.40;14.20;;;19.60;47.20;;;;;;5072882;28;20538;-69
2020/12/10 07:06:19;;;;;;;20.13;12.00;;;19.60;47.20;;;;;;5056881;28;20504;-68
2020/12/10 07:09:02;;;;;;;19.30;12.67;;;19.60;47.10;;;;;;5073084;28;21409;-66
2020/12/10 07:11:34;;;;;;;21.90;13.07;;;19.60;47.30;;;;;;5071776;28;21279;-69
2020/12/10 07:14:01;;;;;;;19.40;12.63;;;19.70;47.10;;;;;;5060568;28;20491;-68
2020/12/10 07:16:30;;;;;;;21.00;12.90;;;19.70;47.10;;;;;;5060157;28;20485;-70
2020/12/10 07:18:57;;;;;;;16.63;11.33;;;19.70;47.10;;;;;;5071102;28;20548;-67
2020/12/10 07:21:24;;;;;;;19.47;12.87;;;19.70;47.00;;;;;;5070478;27;20485;-68
2020/12/10 07:23:50;;;;;;;18.67;12.23;;;19.70;47.20;;;;;;5071222;27;20473;-68
2020/12/10 07:26:16;;;;;;;22.80;13.67;;;19.70;47.40;;;;;;5071790;28;20587;-68
2020/12/10 07:28:43;;;;;;;24.50;12.70;;;19.70;47.50;;;;;;5066295;28;20498;-67
2020/12/10 07:31:16;;;;;;;16.43;11.40;;;19.70;47.60;;;;;;5071362;27;20477;-67
2020/12/10 07:33:42;;;;;;;22.03;12.03;;;19.70;47.70;;;;;;5065555;27;20472;-68
2020/12/10 07:36:09;;;;;;;23.17;13.23;;;19.60;47.70;;;;;;5075834;28;20485;-68
2020/12/10 07:38:35;;;;;;;19.90;11.50;;;19.60;47.80;;;;;;5072884;28;20481;-67
2020/12/10 07:41:02;;;;;;;21.40;12.23;;;19.60;47.80;;;;;;5068105;28;20489;-68
2020/12/10 07:43:28;;;;;;;23.23;14.20;;;19.60;47.80;;;;;;5072418;28;20472;-68
2020/12/10 07:45:54;;;;;;;16.37;10.93;;;19.60;47.80;;;;;;5068598;27;20476;-68
2020/12/10 07:48:20;;;;;;;17.13;11.37;;;19.60;47.90;;;;;;5076349;28;20489;-68
2020/12/10 07:50:47;;;;;;;20.10;12.60;;;19.60;47.90;;;;;;5070556;28;20484;-68
2020/12/10 07:53:13;;;;;;;16.87;11.43;;;19.60;48.00;;;;;;5068570;28;21162;-69
2020/12/10 07:55:45;;;;;;;14.30;9.77;;;19.60;48.00;;;;;;5070424;28;20475;-68
2020/12/10 07:58:18;;;;;;;19.30;11.60;;;19.60;48.00;;;;;;5070867;28;21627;-68
2020/12/10 08:00:46;;;;;;;19.03;12.60;;;19.60;48.10;;;;;;5057933;28;21074;-69
2020/12/10 08:03:28;;;;;;;18.03;10.70;;;19.60;48.20;;;;;;5066943;28;20476;-69
2020/12/10 08:06:02;;;;;;;14.33;10.30;;;19.60;48.20;;;;;;5068547;28;21144;-68
2020/12/10 08:08:31;;;;;;;16.90;10.00;;;19.70;48.20;;;;;;5070062;28;21047;-69
2020/12/10 08:11:07;;;;;;;22.73;11.67;;;19.60;48.00;;;;;;5072161;28;20493;-71
2020/12/10 08:13:33;;;;;;;16.77;10.97;;;19.70;48.00;;;;;;5071224;28;20496;-69
2020/12/10 08:16:06;;;;;;;15.70;11.80;;;19.70;48.00;;;;;;5070262;28;20478;-68
2020/12/10 08:18:32;;;;;;;18.30;11.27;;;19.70;48.00;;;;;;5069626;28;20492;-69
2020/12/10 08:20:59;;;;;;;15.57;10.80;;;19.70;48.00;;;;;;5062963;28;20481;-70
2020/12/10 08:23:25;;;;;;;15.87;10.03;;;19.70;48.00;;;;;;5076870;27;20488;-67
2020/12/10 08:26:09;;;;;;;17.33;11.23;;;19.70;48.10;;;;;;5068308;28;20565;-67
2020/12/10 08:28:35;;;;;;;17.80;10.50;;;19.70;48.30;;;;;;5068013;28;20477;-68
2020/12/10 08:31:02;;;;;;;20.47;11.60;;;19.60;48.20;;;;;;5065354;28;20493;-68
2020/12/10 08:33:33;;;;;;;14.50;9.63;;;19.60;48.30;;;;;;5071837;28;20491;-67
2020/12/10 08:35:59;;;;;;;18.00;10.83;;;19.60;48.50;;;;;;5067044;28;20555;-67
2020/12/10 08:38:26;;;;;;;18.70;11.80;;;19.60;48.50;;;;;;5070893;28;21007;-68
2020/12/10 08:40:55;;;;;;;15.53;10.00;;;19.50;48.50;;;;;;5069779;28;20481;-69
2020/12/10 08:43:22;;;;;;;15.30;9.80;;;19.50;48.50;;;;;;5074870;27;21289;-69
2020/12/10 08:45:48;;;;;;;12.83;9.87;;;19.60;48.50;;;;;;5069801;28;20480;-67
2020/12/10 08:48:15;;;;;;;16.40;10.13;;;19.70;48.50;;;;;;5070159;28;20488;-69
2020/12/10 08:50:51;;;;;;;16.20;10.50;;;19.70;48.30;;;;;;5082467;27;20472;-70
2020/12/10 08:53:18;;;;;;;15.13;10.03;;;19.80;48.00;;;;;;5072234;28;20476;-67
2020/12/10 08:55:45;;;;;;;15.20;10.30;;;19.90;47.80;;;;;;5069413;28;21057;-70
2020/12/10 08:58:15;;;;;;;14.50;9.90;;;20.00;47.80;;;;;;5052284;28;20498;-68
2020/12/10 09:00:42;;;;;;;16.50;11.30;;;20.00;47.80;;;;;;5044809;28;20527;-68
2020/12/10 09:03:08;;;;;;;12.77;9.70;;;20.00;47.70;;;;;;5043343;28;20490;-68
2020/12/10 09:05:34;;;;;;;13.60;9.80;;;20.00;47.80;;;;;;5046591;28;20482;-68
2020/12/10 09:08:00;;;;;;;15.87;10.10;;;20.00;47.70;;;;;;5038176;28;20485;-67
2020/12/10 09:10:29;;;;;;;15.30;9.67;;;20.10;47.80;;;;;;5052287;28;20565;-68
2020/12/10 09:12:55;;;;;;;17.37;10.67;;;20.10;47.80;;;;;;5042160;28;20486;-67
2020/12/10 09:15:21;;;;;;;17.10;10.87;;;20.00;47.70;;;;;;5044718;28;20475;-68
2020/12/10 09:17:48;;;;;;;18.70;10.60;;;20.10;47.80;;;;;;5048406;28;20490;-67
2020/12/10 09:20:15;;;;;;;17.57;11.73;;;20.00;47.80;;;;;;5030030;28;20493;-68
2020/12/10 09:22:41;;;;;;;16.47;11.17;;;20.00;47.80;;;;;;5044681;28;20528;-68
2020/12/10 09:25:07;;;;;;;15.60;10.20;;;20.00;47.80;;;;;;5054385;28;20504;-66
2020/12/10 09:27:33;;;;;;;12.80;10.17;;;20.00;47.90;;;;;;5069035;28;21545;-68
2020/12/10 09:29:59;;;;;;;15.93;10.90;;;20.00;47.80;;;;;;5069886;28;20489;-67
2020/12/10 09:32:25;;;;;;;16.40;10.90;;;20.10;47.80;;;;;;5069589;28;21200;-68
2020/12/10 09:34:52;;;;;;;16.53;10.00;;;20.10;47.80;;;;;;5067457;28;20496;-68
2020/12/10 09:37:19;;;;;;;15.20;9.73;;;20.10;47.80;;;;;;5067761;28;20511;-67
2020/12/10 09:39:45;;;;;;;16.70;11.40;;;20.10;47.80;;;;;;5075759;28;20483;-68
2020/12/10 09:42:11;;;;;;;17.10;11.63;;;20.10;47.90;;;;;;5067304;28;20482;-70
2020/12/10 09:44:37;;;;;;;18.30;10.43;;;20.10;47.70;;;;;;5074423;28;21103;-69
2020/12/10 09:47:06;;;;;;;17.83;11.60;;;20.10;47.80;;;;;;5067617;28;20484;-67
2020/12/10 09:49:32;;;;;;;19.20;11.10;;;20.10;47.80;;;;;;5068467;28;20484;-67
2020/12/10 09:52:01;;;;;;;18.20;10.83;;;20.10;47.90;;;;;;5061375;28;20491;-68
2020/12/10 09:54:37;;;;;;;15.10;9.73;;;20.10;47.90;;;;;;5081806;28;20517;-67
2020/12/10 09:59:44;;;;;;;17.17;10.60;;;20.10;47.90;;;;;;5075448;28;20463;-67
2020/12/10 10:02:10;;;;;;;17.87;10.20;;;20.00;47.90;;;;;;5070258;28;20476;-67
2020/12/10 10:04:36;;;;;;;15.23;10.60;;;20.00;47.90;;;;;;5077804;27;21362;-67
2020/12/10 10:07:06;;;;;;;16.67;10.67;;;20.10;47.90;;;;;;5075278;28;20581;-68
2020/12/10 10:09:33;;;;;;;15.47;11.33;;;20.10;47.90;;;;;;5060220;28;21020;-68
2020/12/10 10:11:59;;;;;;;19.20;12.40;;;20.10;48.00;;;;;;5050854;28;20605;-68
2020/12/10 10:14:25;;;;;;;18.00;11.37;;;20.10;47.90;;;;;;5048500;28;22059;-69
2020/12/10 10:16:53;;;;;;;16.97;10.63;;;20.10;47.90;;;;;;5049223;28;20482;-68
2020/12/10 10:19:19;;;;;;;19.23;11.43;;;20.10;47.90;;;;;;5051067;28;20477;-69
2020/12/10 10:21:46;;;;;;;18.73;10.40;;;20.10;48.00;;;;;;5049262;28;20493;-69
2020/12/10 10:24:13;;;;;;;19.43;10.07;;;20.10;48.00;;;;;;5048142;28;20478;-69
2020/12/10 10:26:39;;;;;;;15.00;9.57;;;20.10;47.80;;;;;;5049962;28;22472;-66
2020/12/10 10:29:08;;;;;;;16.53;10.60;;;20.20;47.80;;;;;;5037573;28;21514;-67
2020/12/10 10:31:34;;;;;;;15.23;11.50;;;20.20;47.80;;;;;;5046522;28;20498;-69
2020/12/10 10:34:00;;;;;;;13.60;8.73;;;20.20;47.80;;;;;;5046843;28;20487;-70
2020/12/10 10:36:27;;;;;;;13.40;9.30;;;20.10;47.80;;;;;;5049858;28;20493;-70
2020/12/10 10:38:53;;;;;;;13.60;9.30;;;20.10;48.70;;;;;;5048287;28;20512;-70
2020/12/10 10:41:20;;;;;;;12.60;9.67;;;20.10;47.90;;;;;;5051800;28;21074;-69
2020/12/10 10:43:46;;;;;;;11.70;8.90;;;20.10;48.00;;;;;;5036253;28;20475;-67
2020/12/10 10:46:17;;;;;;;16.23;11.40;;;20.10;48.10;;;;;;5043201;28;20481;-68
2020/12/10 10:48:43;;;;;;;13.50;9.37;;;20.10;48.10;;;;;;5049293;28;20478;-66
2020/12/10 10:51:11;;;;;;;21.30;11.33;;;20.10;48.00;;;;;;5052622;28;20478;-69
2020/12/10 10:53:37;;;;;;;14.97;10.40;;;20.10;48.00;;;;;;5047552;28;20485;-67
2020/12/10 10:56:03;;;;;;;13.47;9.87;;;20.00;47.90;;;;;;5047419;28;20486;-67
2020/12/10 10:58:30;;;;;;;15.60;10.13;;;20.10;48.00;;;;;;5049601;28;20477;-67
2020/12/10 11:00:56;;;;;;;12.53;9.97;;;20.10;48.00;;;;;;5048834;28;20890;-68
2020/12/10 11:03:22;;;;;;;17.70;9.90;;;20.10;48.20;;;;;;5044521;28;20477;-69
2020/12/10 11:05:49;;;;;;;18.60;10.13;;;20.10;48.00;;;;;;5049297;28;20489;-69
2020/12/10 11:08:15;;;;;;;15.80;9.83;;;20.10;48.00;;;;;;5058935;28;20855;-70
2020/12/10 11:10:41;;;;;;;14.97;10.20;;;20.10;47.80;;;;;;5051243;28;21074;-69
2020/12/10 11:13:07;;;;;;;15.37;9.10;;;20.20;47.90;;;;;;5049630;28;20486;-68
2020/12/10 11:15:34;;;;;;;13.80;8.90;;;20.20;47.80;;;;;;5039462;28;20482;-71
2020/12/10 11:18:00;;;;;;;17.20;9.23;;;20.30;49.30;;;;;;5046480;28;20485;-70
2020/12/10 11:20:27;;;;;;;16.00;10.57;;;20.30;49.30;;;;;;5048692;28;20494;-66
2020/12/10 11:22:53;;;;;;;15.40;9.80;;;20.40;48.70;;;;;;5045454;28;21470;-68
2020/12/10 11:25:19;;;;;;;19.37;10.37;;;20.50;48.20;;;;;;5046523;28;21012;-69
2020/12/10 11:27:45;;;;;;;13.47;10.60;;;20.50;48.30;;;;;;5047038;28;20481;-68
2020/12/10 11:30:11;;;;;;;12.73;9.80;;;20.50;48.30;;;;;;5044644;28;20513;-68
2020/12/10 11:32:38;;;;;;;14.53;10.40;;;20.50;48.40;;;;;;5043420;28;20474;-69
2020/12/10 11:35:04;;;;;;;15.63;10.40;;;20.60;48.60;;;;;;5036897;28;20502;-66
2020/12/10 11:37:30;;;;;;;14.90;10.80;;;20.60;48.70;;;;;;5043758;28;21257;-68
2020/12/10 11:39:57;;;;;;;14.70;10.07;;;20.70;49.10;;;;;;5046888;28;21110;-67
2020/12/10 11:42:23;;;;;;;15.20;10.13;;;20.70;48.60;;;;;;5044522;28;22160;-68
2020/12/10 11:44:50;;;;;;;14.13;9.37;;;20.80;48.20;;;;;;5046891;28;20482;-69
2020/12/10 11:47:16;;;;;;;15.03;10.40;;;20.80;48.00;;;;;;5035367;28;20537;-68
2020/12/10 11:49:43;;;;;;;15.00;9.40;;;20.80;47.60;;;;;;5047008;28;20541;-69
2020/12/10 11:52:09;;;;;;;23.77;10.37;;;20.80;47.50;;;;;;5045847;28;20505;-68
2020/12/10 11:54:35;;;;;;;15.10;10.50;;;20.80;47.30;;;;;;5049095;28;20478;-70
2020/12/10 11:57:01;;;;;;;17.10;10.30;;;20.80;47.30;;;;;;5046232;28;20975;-68
2020/12/10 11:59:28;;;;;;;18.33;10.70;;;20.80;47.30;;;;;;5049183;28;20474;-68
2020/12/10 12:01:54;;;;;;;17.40;10.50;;;20.80;47.30;;;;;;5032240;28;20489;-70
2020/12/10 12:04:20;;;;;;;17.27;10.63;;;20.80;47.30;;;;;;5047433;28;20497;-68
2020/12/10 12:06:47;;;;;;;17.07;10.10;;;20.80;47.30;;;;;;5036858;28;20466;-69
2020/12/10 12:09:13;;;;;;;17.90;12.43;;;20.80;47.30;;;;;;5034430;28;21036;-69
2020/12/10 12:11:39;;;;;;;17.50;11.03;;;20.80;47.30;;;;;;5046870;28;20497;-70
2020/12/10 12:14:05;;;;;;;16.93;10.53;;;20.80;47.30;;;;;;5044444;28;20517;-69
2020/12/10 12:16:32;;;;;;;16.93;9.90;;;20.80;47.20;;;;;;5049510;28;21154;-70
2020/12/10 12:18:58;;;;;;;15.03;9.90;;;20.80;47.10;;;;;;5057983;28;20481;-70
2020/12/10 12:21:26;;;;;;;18.50;10.80;;;20.80;47.00;;;;;;5056273;28;20489;-68
2020/12/10 12:23:53;;;;;;;18.63;11.13;;;20.80;46.90;;;;;;5044756;28;20486;-69
2020/12/10 12:26:19;;;;;;;18.53;10.87;;;20.80;47.00;;;;;;5048771;28;20504;-70
2020/12/10 12:28:49;;;;;;;20.40;10.73;;;20.80;46.90;;;;;;5048752;28;21032;-68
2020/12/10 12:31:15;;;;;;;16.83;10.00;;;20.90;47.00;;;;;;5034365;28;20569;-68